createdAt,value
2019-05-03T00:01:59.067Z,94250.03
2019-05-03T00:07:04.299Z,94248.70
2019-05-03T00:12:09.114Z,94244.04
2019-05-03T00:17:14.287Z,94245.04
2019-05-03T00:22:18.992Z,94237.72
2019-05-03T00:27:23.632Z,94243.22
2019-05-03T00:32:29.753Z,94243.84
2019-05-03T00:37:36.075Z,94243.36
2019-05-03T00:42:42.384Z,94248.50
2019-05-03T00:47:47.160Z,94252.17
2019-05-03T00:52:52.116Z,94250.82
2019-05-03T00:57:56.822Z,94238.87
2019-05-03T01:03:02.151Z,94243.02
2019-05-03T01:08:07.955Z,94241.53
2019-05-03T01:13:12.615Z,94245.34
2019-05-03T01:18:18.824Z,94247.81
2019-05-03T01:23:23.444Z,94250.12
2019-05-03T01:28:27.997Z,94257.45
2019-05-03T01:33:32.565Z,94251.61
2019-05-03T01:38:37.074Z,94255.59
2019-05-03T01:43:41.930Z,94262.91
2019-05-03T01:49:01.590Z,94251.86
2019-05-03T01:54:06.314Z,94249.39
2019-05-03T01:59:12.317Z,94250.38
2019-05-03T02:04:21.650Z,94251.50
2019-05-03T02:09:26.098Z,94247.72
2019-05-03T02:14:31.737Z,94249.05
2019-05-03T02:19:36.445Z,94246.20
2019-05-03T02:24:42.212Z,94251.30
2019-05-03T02:29:46.859Z,94251.97
2019-05-03T02:34:53.516Z,94253.23
2019-05-03T02:40:03.909Z,94254.55
2019-05-03T02:45:11.662Z,94259.02
2019-05-03T02:50:17.379Z,94259.77
2019-05-03T02:55:22.054Z,94257.18
2019-05-03T03:00:47.624Z,94264.98
2019-05-03T03:05:55.934Z,94266.59
2019-05-03T03:11:06.608Z,94271.89
2019-05-03T03:16:11.384Z,94281.71
2019-05-03T03:21:17.718Z,94277.53
2019-05-03T03:26:36.766Z,94279.22
2019-05-03T03:31:49.705Z,94284.23
2019-05-03T03:37:04.515Z,94282.86
2019-05-03T03:42:02.137Z,94285.73
2019-05-03T03:47:07.638Z,94288.44
2019-05-03T03:52:16.017Z,94286.13
2019-05-03T03:57:21.047Z,94292.22
2019-05-03T04:02:26.492Z,94291.59
2019-05-03T04:07:32.079Z,94297.73
2019-05-03T04:12:36.924Z,94300.52
2019-05-03T04:17:46.658Z,94299.02
2019-05-03T04:22:52.321Z,94301.47
2019-05-03T04:27:57.959Z,94300.92
2019-05-03T04:33:05.686Z,94310.89
2019-05-03T04:38:08.946Z,94314.04
2019-05-03T04:43:16.280Z,94314.35
2019-05-03T04:48:19.810Z,94322.22
2019-05-03T04:53:25.993Z,94330.87
2019-05-03T04:58:30.684Z,94329.87
2019-05-03T05:03:36.224Z,94318.94
2019-05-03T05:08:41.958Z,94324.28
2019-05-03T05:13:46.588Z,94327.89
2019-05-03T05:18:52.872Z,94332.39
2019-05-03T05:23:59.373Z,94328.81
2019-05-03T05:29:06.657Z,94334.91
2019-05-03T05:34:11.228Z,94342.91
2019-05-03T05:39:18.710Z,94342.16
2019-05-03T05:44:24.769Z,94330.98
2019-05-03T05:49:39.932Z,94330.48
2019-05-03T05:54:46.183Z,94345.95
2019-05-03T05:59:54.439Z,94348.55
2019-05-03T06:04:58.797Z,94352.45
2019-05-03T06:10:16.679Z,94351.66
2019-05-03T06:15:38.147Z,94359.56
2019-05-03T06:20:45.166Z,94361.19
2019-05-03T06:25:49.977Z,94350.78
2019-05-03T06:30:56.229Z,94368.48
2019-05-03T06:36:00.867Z,94369.52
2019-05-03T06:41:05.576Z,94368.98
2019-05-03T06:46:10.207Z,94354.55
2019-05-03T06:51:19.908Z,94364.08
2019-05-03T06:56:25.046Z,94361.58
2019-05-03T07:01:31.622Z,94358.72
2019-05-03T07:06:40.638Z,94348.86
2019-05-03T07:11:45.150Z,94345.29
2019-05-03T07:16:49.714Z,94345.58
2019-05-03T07:21:54.680Z,94341.54
2019-05-03T07:26:59.500Z,94341.58
2019-05-03T07:32:05.180Z,94342.92
2019-05-03T07:37:10.008Z,94338.81
2019-05-03T07:42:15.656Z,94340.84
2019-05-03T07:47:21.379Z,94338.58
2019-05-03T07:52:26.040Z,94337.42
2019-05-03T07:57:32.153Z,94333.99
2019-05-03T08:02:36.946Z,94329.53
2019-05-03T08:07:43.923Z,94323.67
2019-05-03T08:12:47.720Z,94321.13
2019-05-03T08:17:52.234Z,94320.73
2019-05-03T08:22:56.800Z,94327.91
2019-05-03T08:28:01.441Z,94326.47
2019-05-03T08:33:07.812Z,94319.07
2019-05-03T08:38:12.428Z,94315.37
2019-05-03T08:43:17.144Z,94295.53
2019-05-03T08:48:21.955Z,94302.38
2019-05-03T08:53:26.633Z,94296.88
2019-05-03T08:58:31.230Z,94296.59
2019-05-03T09:03:38.308Z,94280.94
2019-05-03T09:08:42.205Z,94273.08
2019-05-03T09:13:49.078Z,94272.66
2019-05-03T09:18:54.912Z,94264.13
2019-05-03T09:23:59.717Z,94264.55
2019-05-03T09:29:05.529Z,94245.31
2019-05-03T09:34:10.291Z,94248.13
2019-05-03T09:39:14.989Z,94244.17
2019-05-03T09:44:19.603Z,94233.91
2019-05-03T09:49:25.352Z,94224.67
2019-05-03T09:54:34.736Z,94217.59
2019-05-03T09:59:39.444Z,94222.25
2019-05-03T10:04:44.609Z,94210.48
2019-05-03T10:09:49.315Z,94200.33
2019-05-03T10:14:55.448Z,94199.88
2019-05-03T10:20:00.018Z,94191.89
2019-05-03T10:25:07.882Z,94181.00
2019-05-03T10:30:17.020Z,94173.71
2019-05-03T10:35:20.215Z,94172.69
2019-05-03T10:40:28.269Z,94163.13
2019-05-03T10:45:32.924Z,94162.44
2019-05-03T10:50:38.607Z,94157.80
2019-05-03T10:55:45.184Z,94149.38
2019-05-03T11:00:53.323Z,94142.68
2019-05-03T11:05:57.689Z,94145.63
2019-05-03T11:11:02.269Z,94125.27
2019-05-03T11:16:07.368Z,94124.66
2019-05-03T11:21:12.102Z,94112.78
2019-05-03T11:26:16.670Z,94107.30
2019-05-03T11:31:38.674Z,94101.68
2019-05-03T11:36:45.475Z,94096.34
2019-05-03T11:41:51.688Z,94093.37
2019-05-03T11:46:56.335Z,94085.16
2019-05-03T11:52:00.996Z,94081.52
2019-05-03T11:57:11.631Z,94068.55
2019-05-03T12:02:20.840Z,94061.02
2019-05-03T12:07:39.428Z,94057.10
2019-05-03T12:12:44.035Z,94038.41
2019-05-03T12:17:59.072Z,94045.17
2019-05-03T12:23:11.437Z,94035.80
2019-05-03T12:28:16.517Z,94021.04
2019-05-03T12:33:22.843Z,94008.67
2019-05-03T12:38:27.459Z,94023.44
2019-05-03T12:43:32.078Z,94009.27
2019-05-03T12:48:36.810Z,93998.97
2019-05-03T12:53:41.460Z,93997.69
2019-05-03T12:58:50.743Z,93993.63
2019-05-03T13:04:00.125Z,93994.37
2019-05-03T13:09:07.414Z,93978.89
2019-05-03T13:14:12.322Z,93982.23
2019-05-03T13:19:17.000Z,93985.02
2019-05-03T13:24:23.413Z,93978.63
2019-05-03T13:29:27.814Z,93978.94
2019-05-03T13:34:32.519Z,93972.98
2019-05-03T13:39:37.135Z,93966.50
2019-05-03T13:44:41.732Z,93964.69
2019-05-03T13:49:46.353Z,93956.53
2019-05-03T13:54:50.945Z,93953.93
2019-05-03T13:59:55.563Z,93948.81
2019-05-03T14:05:00.209Z,93958.08
2019-05-03T14:10:09.257Z,93951.34
2019-05-03T14:15:14.924Z,93950.27
2019-05-03T14:20:27.266Z,93944.61
2019-05-03T14:25:31.927Z,93937.33
2019-05-03T14:30:36.546Z,93944.56
2019-05-03T14:35:41.098Z,93928.61
2019-05-03T14:40:47.346Z,93932.06
2019-05-03T14:45:52.090Z,93933.91
2019-05-03T14:50:57.505Z,93932.48
2019-05-03T14:56:07.845Z,93933.95
2019-05-03T15:01:15.470Z,93929.98
2019-05-03T15:06:20.101Z,93917.67
2019-05-03T15:11:24.649Z,93922.27
2019-05-03T15:16:29.271Z,93919.86
2019-05-03T15:21:34.652Z,93912.03
2019-05-03T15:26:39.333Z,93920.45
2019-05-03T15:31:44.752Z,93933.43
2019-05-03T15:36:49.461Z,93943.92
2019-05-03T15:41:54.455Z,93935.60
2019-05-03T15:47:09.609Z,93937.15
2019-05-03T15:52:15.517Z,93923.19
2019-05-03T15:57:19.998Z,93930.27
2019-05-03T16:02:24.787Z,93930.99
2019-05-03T16:07:29.323Z,93933.32
2019-05-03T16:12:34.425Z,93936.40
2019-05-03T16:17:39.283Z,93940.27
2019-05-03T16:22:46.668Z,93941.37
2019-05-03T16:27:55.645Z,93934.16
2019-05-03T16:33:00.334Z,93938.55
2019-05-03T16:38:06.148Z,93933.86
2019-05-03T16:43:10.756Z,93931.92
2019-05-03T16:48:18.299Z,93928.89
2019-05-03T16:53:21.968Z,93936.60
2019-05-03T16:58:26.625Z,93940.00
2019-05-03T17:03:39.227Z,93942.34
2019-05-03T17:08:46.326Z,93940.89
2019-05-03T17:13:50.895Z,93950.30
2019-05-03T17:18:55.572Z,93947.56
2019-05-03T17:24:00.239Z,93952.58
2019-05-03T17:29:05.007Z,93953.69
2019-05-03T17:34:09.455Z,93959.19
2019-05-03T17:39:18.575Z,93967.44
2019-05-03T17:44:24.902Z,93967.90
2019-05-03T17:49:29.479Z,93974.91
2019-05-03T17:54:35.817Z,93984.57
2019-05-03T17:59:45.866Z,93988.19
2019-05-03T18:04:52.130Z,93993.81
2019-05-03T18:09:58.717Z,94018.50
2019-05-03T18:15:05.612Z,94020.34
2019-05-03T18:20:10.277Z,94020.34
2019-05-03T18:25:15.011Z,94012.39
2019-05-03T18:30:21.014Z,94049.45
2019-05-03T18:35:25.802Z,94059.22
2019-05-03T18:40:31.986Z,94063.98
2019-05-03T18:45:50.330Z,94073.41
2019-05-03T18:50:55.036Z,94072.53
2019-05-03T18:55:59.681Z,94065.33
2019-05-03T19:01:05.349Z,94065.33
2019-05-03T19:06:11.662Z,94077.72
2019-05-03T19:11:26.974Z,94079.58
2019-05-03T19:16:42.793Z,94079.58
2019-05-03T19:21:47.484Z,94071.78
2019-05-03T19:26:54.289Z,94071.78
2019-05-03T19:32:00.333Z,94090.35
2019-05-03T19:37:05.355Z,94090.74
2019-05-03T19:42:11.142Z,94097.52
2019-05-03T19:47:15.830Z,94094.74
2019-05-03T19:52:22.098Z,94095.83
2019-05-03T19:57:34.916Z,94095.05
2019-05-03T20:02:45.375Z,94097.02
2019-05-03T20:08:00.876Z,94089.05
2019-05-03T20:13:05.578Z,94115.91
2019-05-03T20:18:10.402Z,94109.40
2019-05-03T20:23:15.938Z,94114.95
2019-05-03T20:28:20.811Z,94123.44
2019-05-03T20:33:25.630Z,94136.88
2019-05-03T20:38:30.154Z,94142.10
2019-05-03T20:43:59.041Z,94134.89
2019-05-03T20:49:08.732Z,94127.72
2019-05-03T20:54:15.260Z,94123.24
2019-05-03T20:59:19.892Z,94111.72
2019-05-03T21:04:24.883Z,94111.73
2019-05-03T21:09:29.563Z,94110.19
2019-05-03T21:14:35.056Z,94110.09
2019-05-03T21:19:41.418Z,94118.31
2019-05-03T21:24:47.624Z,94116.36
2019-05-03T21:29:54.879Z,94111.73
2019-05-03T21:34:59.185Z,94115.97
2019-05-03T21:40:05.593Z,94121.98
2019-05-03T21:45:12.307Z,94117.60
2019-05-03T21:50:18.416Z,94121.23
2019-05-03T21:55:24.769Z,94123.41
2019-05-03T22:00:31.296Z,94122.09
2019-05-03T22:05:37.443Z,94122.59
2019-05-03T22:10:42.099Z,94119.38
2019-05-03T22:15:48.384Z,94126.22
2019-05-03T22:20:57.638Z,94126.41
2019-05-03T22:26:05.028Z,94128.08
2019-05-03T22:31:08.978Z,94122.98
2019-05-03T22:36:14.511Z,94118.03
2019-05-03T22:41:19.070Z,94121.14
2019-05-03T22:46:24.934Z,94115.98
2019-05-03T22:51:29.647Z,94106.63
2019-05-03T22:56:35.601Z,94106.05
2019-05-03T23:01:41.331Z,94100.09
2019-05-03T23:06:47.103Z,94094.73
2019-05-03T23:11:51.820Z,94095.11
2019-05-03T23:16:56.388Z,94094.48
2019-05-03T23:22:04.666Z,94091.56
2019-05-03T23:27:08.918Z,94101.23
2019-05-03T23:32:15.160Z,94097.16
2019-05-03T23:37:19.965Z,94083.72
2019-05-03T23:42:24.605Z,94087.23
2019-05-03T23:47:30.786Z,94082.20
2019-05-03T23:52:35.620Z,94084.12
2019-05-03T23:57:40.201Z,94076.61
